sensor_id;sensor_type;location;lat;lon;timestamp;P1;durP1;ratioP1;P2;durP2;ratioP2
15183;SDS011;7693;49.266;7.104;2023-04-15T05:26:36;6.17;;;5.57;;
15183;SDS011;7693;49.266;7.104;2023-04-15T05:29:02;7.10;;;6.50;;
15183;SDS011;7693;49.266;7.104;2023-04-15T05:31:27;7.27;;;5.73;;
15183;SDS011;7693;49.266;7.104;2023-04-15T05:33:53;6.87;;;5.93;;
15183;SDS011;7693;49.266;7.104;2023-04-15T05:36:19;10.23;;;6.20;;
15183;SDS011;7693;49.266;7.104;2023-04-15T05:38:45;8.03;;;6.03;;
15183;SDS011;7693;49.266;7.104;2023-04-15T05:41:13;8.63;;;6.23;;
15183;SDS011;7693;49.266;7.104;2023-04-15T05:43:42;8.13;;;6.43;;
15183;SDS011;7693;49.266;7.104;2023-04-15T05:46:08;8.90;;;6.47;;
15183;SDS011;7693;49.266;7.104;2023-04-15T05:48:33;8.77;;;6.27;;
15183;SDS011;7693;49.266;7.104;2023-04-15T05:50:59;9.20;;;6.43;;
15183;SDS011;7693;49.266;7.104;2023-04-15T05:53:25;8.90;;;6.40;;
15183;SDS011;7693;49.266;7.104;2023-04-15T05:55:50;9.13;;;6.80;;
15183;SDS011;7693;49.266;7.104;2023-04-15T05:58:16;7.37;;;6.57;;
15183;SDS011;7693;49.266;7.104;2023-04-15T06:00:42;11.40;;;6.80;;
15183;SDS011;7693;49.266;7.104;2023-04-15T06:03:08;10.77;;;7.33;;
15183;SDS011;7693;49.266;7.104;2023-04-15T06:05:35;11.47;;;7.23;;
15183;SDS011;7693;49.266;7.104;2023-04-15T06:08:01;8.40;;;6.33;;
15183;SDS011;7693;49.266;7.104;2023-04-15T06:10:26;7.43;;;6.00;;
15183;SDS011;7693;49.266;7.104;2023-04-15T06:12:52;5.50;;;5.00;;
15183;SDS011;7693;49.266;7.104;2023-04-15T06:15:18;5.50;;;5.00;;
15183;SDS011;7693;49.266;7.104;2023-04-15T06:17:44;6.47;;;5.20;;
15183;SDS011;7693;49.266;7.104;2023-04-15T06:20:09;8.67;;;5.47;;
15183;SDS011;7693;49.266;7.104;2023-04-15T06:22:36;6.07;;;5.23;;
15183;SDS011;7693;49.266;7.104;2023-04-15T06:25:03;9.83;;;5.33;;
15183;SDS011;7693;49.266;7.104;2023-04-15T06:27:29;7.03;;;5.13;;
15183;SDS011;7693;49.266;7.104;2023-04-15T06:29:54;5.47;;;4.63;;
15183;SDS011;7693;49.266;7.104;2023-04-15T06:32:20;6.50;;;5.23;;
15183;SDS011;7693;49.266;7.104;2023-04-15T06:34:46;5.67;;;5.10;;
15183;SDS011;7693;49.266;7.104;2023-04-15T06:37:12;7.83;;;5.87;;
15183;SDS011;7693;49.266;7.104;2023-04-15T06:39:40;5.63;;;5.03;;
15183;SDS011;7693;49.266;7.104;2023-04-15T06:42:06;6.97;;;5.07;;
15183;SDS011;7693;49.266;7.104;2023-04-15T06:44:33;5.93;;;5.10;;
15183;SDS011;7693;49.266;7.104;2023-04-15T06:46:58;7.53;;;4.43;;
15183;SDS011;7693;49.266;7.104;2023-04-15T06:49:27;5.80;;;4.07;;
15183;SDS011;7693;49.266;7.104;2023-04-15T06:51:53;6.67;;;4.63;;
15183;SDS011;7693;49.266;7.104;2023-04-15T06:54:18;9.40;;;4.70;;
15183;SDS011;7693;49.266;7.104;2023-04-15T06:56:44;6.93;;;5.10;;
15183;SDS011;7693;49.266;7.104;2023-04-15T06:59:10;4.40;;;4.00;;
15183;SDS011;7693;49.266;7.104;2023-04-15T07:01:35;7.60;;;4.33;;
15183;SDS011;7693;49.266;7.104;2023-04-15T07:04:01;6.27;;;4.50;;
15183;SDS011;7693;49.266;7.104;2023-04-15T07:06:26;6.73;;;4.20;;
15183;SDS011;7693;49.266;7.104;2023-04-15T07:08:52;5.80;;;4.20;;
15183;SDS011;7693;49.266;7.104;2023-04-15T07:11:18;5.87;;;5.37;;
15183;SDS011;7693;49.266;7.104;2023-04-15T07:13:45;7.00;;;4.23;;
15183;SDS011;7693;49.266;7.104;2023-04-15T07:16:10;8.43;;;7.53;;
15183;SDS011;7693;49.266;7.104;2023-04-15T07:18:37;7.03;;;4.33;;
15183;SDS011;7693;49.266;7.104;2023-04-15T07:21:02;8.00;;;4.83;;
15183;SDS011;7693;49.266;7.104;2023-04-15T07:23:28;6.77;;;6.00;;
15183;SDS011;7693;49.266;7.104;2023-04-15T07:25:54;6.70;;;4.93;;
15183;SDS011;7693;49.266;7.104;2023-04-15T07:28:20;6.40;;;4.40;;
15183;SDS011;7693;49.266;7.104;2023-04-15T07:30:46;8.17;;;5.23;;
15183;SDS011;7693;49.266;7.104;2023-04-15T07:33:12;5.57;;;4.17;;
15183;SDS011;7693;49.266;7.104;2023-04-15T07:35:38;4.20;;;3.87;;
15183;SDS011;7693;49.266;7.104;2023-04-15T07:38:04;8.57;;;4.60;;
15183;SDS011;7693;49.266;7.104;2023-04-15T07:40:29;7.53;;;4.80;;
15183;SDS011;7693;49.266;7.104;2023-04-15T07:42:55;5.38;;;4.55;;
15183;SDS011;7693;49.266;7.104;2023-04-15T07:45:22;7.37;;;4.07;;
15183;SDS011;7693;49.266;7.104;2023-04-15T07:47:48;8.87;;;5.53;;
15183;SDS011;7693;49.266;7.104;2023-04-15T07:50:14;6.53;;;3.77;;
15183;SDS011;7693;49.266;7.104;2023-04-15T07:52:41;5.43;;;3.67;;
15183;SDS011;7693;49.266;7.104;2023-04-15T07:55:07;4.13;;;3.83;;
15183;SDS011;7693;49.266;7.104;2023-04-15T07:57:33;7.07;;;5.03;;
15183;SDS011;7693;49.266;7.104;2023-04-15T13:29:36;2.85;;;2.65;;
15183;SDS011;7693;49.266;7.104;2023-04-15T13:32:01;2.97;;;2.70;;
15183;SDS011;7693;49.266;7.104;2023-04-15T13:34:27;3.15;;;2.38;;
15183;SDS011;7693;49.266;7.104;2023-04-15T13:36:52;3.53;;;2.10;;
15183;SDS011;7693;49.266;7.104;2023-04-15T13:39:18;3.05;;;2.22;;
15183;SDS011;7693;49.266;7.104;2023-04-15T13:41:46;1.90;;;1.80;;
15183;SDS011;7693;49.266;7.104;2023-04-15T13:44:12;2.08;;;1.90;;
15183;SDS011;7693;49.266;7.104;2023-04-15T13:46:38;2.10;;;1.90;;
15183;SDS011;7693;49.266;7.104;2023-04-15T13:49:05;2.22;;;2.13;;
15183;SDS011;7693;49.266;7.104;2023-04-15T13:51:31;1.85;;;1.75;;
15183;SDS011;7693;49.266;7.104;2023-04-15T13:53:57;3.15;;;1.90;;
15183;SDS011;7693;49.266;7.104;2023-04-15T13:56:23;2.83;;;2.00;;
15183;SDS011;7693;49.266;7.104;2023-04-15T13:58:48;2.15;;;2.00;;
15183;SDS011;7693;49.266;7.104;2023-04-15T14:01:14;1.88;;;1.70;;
15183;SDS011;7693;49.266;7.104;2023-04-15T14:03:40;4.53;;;1.65;;
15183;SDS011;7693;49.266;7.104;2023-04-15T14:06:05;2.20;;;2.00;;
15183;SDS011;7693;49.266;7.104;2023-04-15T14:08:31;2.28;;;1.80;;
15183;SDS011;7693;49.266;7.104;2023-04-15T14:10:57;2.05;;;1.95;;
15183;SDS011;7693;49.266;7.104;2023-04-15T14:13:22;1.95;;;1.85;;
15183;SDS011;7693;49.266;7.104;2023-04-15T14:15:48;2.15;;;2.05;;
15183;SDS011;7693;49.266;7.104;2023-04-15T14:18:14;2.17;;;2.08;;
15183;SDS011;7693;49.266;7.104;2023-04-15T14:20:39;1.77;;;1.67;;
15183;SDS011;7693;49.266;7.104;2023-04-15T14:23:05;1.83;;;1.70;;
15183;SDS011;7693;49.266;7.104;2023-04-15T14:25:30;4.25;;;2.05;;
15183;SDS011;7693;49.266;7.104;2023-04-15T14:27:56;3.70;;;1.73;;
15183;SDS011;7693;49.266;7.104;2023-04-15T14:30:22;2.22;;;1.80;;
15183;SDS011;7693;49.266;7.104;2023-04-15T14:32:47;2.00;;;1.90;;
15183;SDS011;7693;49.266;7.104;2023-04-15T14:35:13;2.58;;;2.38;;
15183;SDS011;7693;49.266;7.104;2023-04-15T14:37:38;4.75;;;4.40;;
15183;SDS011;7693;49.266;7.104;2023-04-15T14:40:04;1.77;;;1.70;;
15183;SDS011;7693;49.266;7.104;2023-04-15T14:42:30;2.15;;;2.05;;
15183;SDS011;7693;49.266;7.104;2023-04-15T14:44:55;2.00;;;1.90;;
15183;SDS011;7693;49.266;7.104;2023-04-15T14:47:21;1.88;;;1.77;;
15183;SDS011;7693;49.266;7.104;2023-04-15T14:49:47;2.28;;;2.08;;
15183;SDS011;7693;49.266;7.104;2023-04-15T14:52:12;2.10;;;2.00;;
15183;SDS011;7693;49.266;7.104;2023-04-15T14:54:38;1.90;;;1.80;;
15183;SDS011;7693;49.266;7.104;2023-04-15T14:57:03;2.03;;;1.90;;
15183;SDS011;7693;49.266;7.104;2023-04-15T14:59:29;2.20;;;2.08;;
15183;SDS011;7693;49.266;7.104;2023-04-15T15:01:55;1.90;;;1.80;;
15183;SDS011;7693;49.266;7.104;2023-04-15T15:04:20;2.33;;;2.22;;
15183;SDS011;7693;49.266;7.104;2023-04-15T15:06:46;2.88;;;2.67;;
15183;SDS011;7693;49.266;7.104;2023-04-15T15:09:11;3.53;;;3.05;;
15183;SDS011;7693;49.266;7.104;2023-04-15T15:11:37;2.33;;;2.10;;
15183;SDS011;7693;49.266;7.104;2023-04-15T15:14:03;2.20;;;2.03;;
15183;SDS011;7693;49.266;7.104;2023-04-15T15:16:28;2.58;;;2.38;;
15183;SDS011;7693;49.266;7.104;2023-04-15T15:18:54;2.55;;;2.35;;
15183;SDS011;7693;49.266;7.104;2023-04-15T15:21:19;3.03;;;2.92;;
15183;SDS011;7693;49.266;7.104;2023-04-15T15:23:45;2.20;;;2.10;;
15183;SDS011;7693;49.266;7.104;2023-04-15T15:26:12;2.95;;;2.83;;
15183;SDS011;7693;49.266;7.104;2023-04-15T15:28:37;3.67;;;2.60;;
15183;SDS011;7693;49.266;7.104;2023-04-15T15:31:03;2.78;;;2.55;;
15183;SDS011;7693;49.266;7.104;2023-04-15T15:33:29;1.90;;;1.90;;
15183;SDS011;7693;49.266;7.104;2023-04-15T15:35:56;1.98;;;1.98;;
15183;SDS011;7693;49.266;7.104;2023-04-15T15:38:22;2.42;;;2.30;;
15183;SDS011;7693;49.266;7.104;2023-04-15T15:40:47;2.17;;;2.00;;
15183;SDS011;7693;49.266;7.104;2023-04-15T15:43:13;2.15;;;1.40;;
15183;SDS011;7693;49.266;7.104;2023-04-15T15:45:39;1.30;;;1.30;;
15183;SDS011;7693;49.266;7.104;2023-04-15T15:48:05;3.05;;;1.30;;
15183;SDS011;7693;49.266;7.104;2023-04-15T15:50:31;2.03;;;1.92;;
15183;SDS011;7693;49.266;7.104;2023-04-15T15:52:57;1.50;;;1.50;;
15183;SDS011;7693;49.266;7.104;2023-04-15T15:55:23;1.95;;;1.95;;
15183;SDS011;7693;49.266;7.104;2023-04-15T15:57:49;2.22;;;2.13;;
15183;SDS011;7693;49.266;7.104;2023-04-15T16:00:15;1.70;;;1.70;;
15183;SDS011;7693;49.266;7.104;2023-04-15T16:02:41;1.75;;;1.75;;
15183;SDS011;7693;49.266;7.104;2023-04-15T16:05:07;2.00;;;1.90;;
15183;SDS011;7693;49.266;7.104;2023-04-15T16:07:33;1.73;;;1.63;;
15183;SDS011;7693;49.266;7.104;2023-04-15T16:09:59;2.17;;;2.15;;
15183;SDS011;7693;49.266;7.104;2023-04-15T16:12:24;2.08;;;1.98;;
15183;SDS011;7693;49.266;7.104;2023-04-15T16:14:50;2.93;;;2.20;;
15183;SDS011;7693;49.266;7.104;2023-04-15T16:17:16;2.90;;;2.80;;
15183;SDS011;7693;49.266;7.104;2023-04-15T16:19:41;3.57;;;3.27;;
15183;SDS011;7693;49.266;7.104;2023-04-15T16:22:07;3.63;;;3.45;;
15183;SDS011;7693;49.266;7.104;2023-04-15T16:24:33;3.20;;;3.10;;
15183;SDS011;7693;49.266;7.104;2023-04-15T16:26:58;3.10;;;3.00;;
15183;SDS011;7693;49.266;7.104;2023-04-15T16:29:24;5.43;;;3.47;;
15183;SDS011;7693;49.266;7.104;2023-04-15T16:31:50;3.47;;;3.27;;
15183;SDS011;7693;49.266;7.104;2023-04-15T16:34:16;3.33;;;3.23;;
15183;SDS011;7693;49.266;7.104;2023-04-15T16:36:42;3.33;;;3.20;;
15183;SDS011;7693;49.266;7.104;2023-04-15T16:39:08;3.58;;;3.40;;
15183;SDS011;7693;49.266;7.104;2023-04-15T16:41:33;3.07;;;2.97;;
15183;SDS011;7693;49.266;7.104;2023-04-15T16:43:59;3.67;;;3.37;;
15183;SDS011;7693;49.266;7.104;2023-04-15T16:46:26;3.80;;;3.50;;
15183;SDS011;7693;49.266;7.104;2023-04-15T16:48:53;3.40;;;3.30;;
15183;SDS011;7693;49.266;7.104;2023-04-15T16:51:19;3.53;;;3.43;;
15183;SDS011;7693;49.266;7.104;2023-04-15T16:53:44;4.37;;;4.13;;
15183;SDS011;7693;49.266;7.104;2023-04-15T16:56:10;3.90;;;3.63;;
15183;SDS011;7693;49.266;7.104;2023-04-15T16:58:36;3.97;;;3.67;;
15183;SDS011;7693;49.266;7.104;2023-04-15T17:01:01;4.03;;;3.83;;
15183;SDS011;7693;49.266;7.104;2023-04-15T17:03:27;3.87;;;3.77;;
15183;SDS011;7693;49.266;7.104;2023-04-15T17:05:52;3.40;;;3.30;;
15183;SDS011;7693;49.266;7.104;2023-04-15T17:08:18;5.33;;;5.10;;
15183;SDS011;7693;49.266;7.104;2023-04-15T17:10:43;3.60;;;3.50;;
15183;SDS011;7693;49.266;7.104;2023-04-15T17:13:09;4.10;;;4.00;;
15183;SDS011;7693;49.266;7.104;2023-04-15T17:15:35;4.33;;;4.23;;
15183;SDS011;7693;49.266;7.104;2023-04-15T17:18:00;4.73;;;4.37;;
15183;SDS011;7693;49.266;7.104;2023-04-15T17:20:26;5.17;;;4.70;;
15183;SDS011;7693;49.266;7.104;2023-04-15T17:22:51;4.60;;;4.40;;
15183;SDS011;7693;49.266;7.104;2023-04-15T17:25:17;5.03;;;4.73;;
15183;SDS011;7693;49.266;7.104;2023-04-15T17:27:43;5.13;;;4.83;;
15183;SDS011;7693;49.266;7.104;2023-04-15T17:30:09;5.63;;;5.33;;
15183;SDS011;7693;49.266;7.104;2023-04-15T17:32:34;4.50;;;4.30;;
15183;SDS011;7693;49.266;7.104;2023-04-15T17:35:02;5.07;;;4.87;;
15183;SDS011;7693;49.266;7.104;2023-04-15T17:37:30;5.17;;;4.90;;
15183;SDS011;7693;49.266;7.104;2023-04-15T17:39:56;5.20;;;5.00;;
15183;SDS011;7693;49.266;7.104;2023-04-15T17:42:22;6.83;;;6.30;;
15183;SDS011;7693;49.266;7.104;2023-04-15T17:44:47;6.07;;;5.67;;
15183;SDS011;7693;49.266;7.104;2023-04-15T17:47:13;5.80;;;5.50;;
15183;SDS011;7693;49.266;7.104;2023-04-15T17:49:39;5.97;;;5.67;;
15183;SDS011;7693;49.266;7.104;2023-04-15T17:52:04;5.93;;;5.00;;
15183;SDS011;7693;49.266;7.104;2023-04-15T17:54:30;5.30;;;5.10;;
15183;SDS011;7693;49.266;7.104;2023-04-15T17:56:56;5.20;;;4.90;;
15183;SDS011;7693;49.266;7.104;2023-04-15T17:59:21;6.00;;;5.70;;
15183;SDS011;7693;49.266;7.104;2023-04-15T18:01:47;5.10;;;4.87;;
15183;SDS011;7693;49.266;7.104;2023-04-15T18:04:13;8.97;;;7.77;;
15183;SDS011;7693;49.266;7.104;2023-04-15T18:06:38;4.97;;;4.77;;
15183;SDS011;7693;49.266;7.104;2023-04-15T18:09:04;5.43;;;4.93;;
15183;SDS011;7693;49.266;7.104;2023-04-15T18:11:31;4.27;;;3.97;;
15183;SDS011;7693;49.266;7.104;2023-04-15T18:13:57;4.00;;;3.80;;
15183;SDS011;7693;49.266;7.104;2023-04-15T18:16:24;4.07;;;3.87;;
15183;SDS011;7693;49.266;7.104;2023-04-15T18:18:50;3.87;;;3.77;;
15183;SDS011;7693;49.266;7.104;2023-04-15T18:21:16;4.27;;;4.07;;
15183;SDS011;7693;49.266;7.104;2023-04-15T18:23:41;3.93;;;3.73;;
15183;SDS011;7693;49.266;7.104;2023-04-15T18:26:07;3.10;;;3.00;;
15183;SDS011;7693;49.266;7.104;2023-04-15T18:28:33;3.90;;;3.00;;
15183;SDS011;7693;49.266;7.104;2023-04-15T18:30:58;3.30;;;3.10;;
15183;SDS011;7693;49.266;7.104;2023-04-15T18:33:25;3.03;;;2.83;;
15183;SDS011;7693;49.266;7.104;2023-04-15T18:35:51;2.70;;;2.60;;
15183;SDS011;7693;49.266;7.104;2023-04-15T18:38:16;3.73;;;2.60;;
15183;SDS011;7693;49.266;7.104;2023-04-15T18:40:42;2.80;;;2.70;;
15183;SDS011;7693;49.266;7.104;2023-04-15T18:43:07;2.37;;;2.17;;
15183;SDS011;7693;49.266;7.104;2023-04-15T18:45:33;2.87;;;2.77;;
15183;SDS011;7693;49.266;7.104;2023-04-15T18:48:00;2.53;;;2.43;;
15183;SDS011;7693;49.266;7.104;2023-04-15T18:50:26;3.10;;;3.00;;
15183;SDS011;7693;49.266;7.104;2023-04-15T18:52:52;4.40;;;3.23;;
15183;SDS011;7693;49.266;7.104;2023-04-15T18:55:17;2.70;;;2.50;;
15183;SDS011;7693;49.266;7.104;2023-04-15T18:57:43;2.17;;;2.00;;
15183;SDS011;7693;49.266;7.104;2023-04-15T19:00:10;3.87;;;3.30;;
15183;SDS011;7693;49.266;7.104;2023-04-15T19:02:37;3.13;;;2.40;;
15183;SDS011;7693;49.266;7.104;2023-04-15T19:05:03;2.30;;;2.20;;
15183;SDS011;7693;49.266;7.104;2023-04-15T19:07:30;2.57;;;2.37;;
15183;SDS011;7693;49.266;7.104;2023-04-15T19:09:55;3.00;;;2.90;;
15183;SDS011;7693;49.266;7.104;2023-04-15T19:12:21;2.77;;;2.67;;
15183;SDS011;7693;49.266;7.104;2023-04-15T19:14:47;2.37;;;2.27;;
15183;SDS011;7693;49.266;7.104;2023-04-15T19:17:12;2.70;;;2.60;;
15183;SDS011;7693;49.266;7.104;2023-04-15T19:19:38;3.03;;;2.90;;
15183;SDS011;7693;49.266;7.104;2023-04-15T19:22:03;2.97;;;2.70;;
15183;SDS011;7693;49.266;7.104;2023-04-15T19:24:30;3.10;;;2.97;;
15183;SDS011;7693;49.266;7.104;2023-04-15T19:26:56;2.67;;;2.57;;
15183;SDS011;7693;49.266;7.104;2023-04-15T19:29:22;2.70;;;2.60;;
15183;SDS011;7693;49.266;7.104;2023-04-15T19:31:48;2.63;;;2.53;;
15183;SDS011;7693;49.266;7.104;2023-04-15T19:34:14;2.67;;;2.47;;
15183;SDS011;7693;49.266;7.104;2023-04-15T19:36:40;3.47;;;2.70;;
15183;SDS011;7693;49.266;7.104;2023-04-15T19:39:05;2.50;;;2.40;;
15183;SDS011;7693;49.266;7.104;2023-04-15T19:41:31;2.87;;;2.67;;
15183;SDS011;7693;49.266;7.104;2023-04-15T19:43:57;4.53;;;4.23;;
15183;SDS011;7693;49.266;7.104;2023-04-15T19:46:22;3.30;;;3.10;;
15183;SDS011;7693;49.266;7.104;2023-04-15T19:48:48;4.20;;;2.73;;
15183;SDS011;7693;49.266;7.104;2023-04-15T19:51:14;2.97;;;2.87;;
15183;SDS011;7693;49.266;7.104;2023-04-15T19:53:39;3.00;;;2.80;;
15183;SDS011;7693;49.266;7.104;2023-04-15T19:56:05;3.60;;;3.40;;
15183;SDS011;7693;49.266;7.104;2023-04-15T19:58:31;3.07;;;2.70;;
15183;SDS011;7693;49.266;7.104;2023-04-15T20:00:56;3.83;;;2.73;;
15183;SDS011;7693;49.266;7.104;2023-04-15T20:03:22;3.20;;;3.00;;
15183;SDS011;7693;49.266;7.104;2023-04-15T20:05:48;2.77;;;2.67;;
15183;SDS011;7693;49.266;7.104;2023-04-15T20:08:13;2.93;;;2.70;;
15183;SDS011;7693;49.266;7.104;2023-04-15T20:10:39;3.73;;;3.60;;
15183;SDS011;7693;49.266;7.104;2023-04-15T20:13:05;5.07;;;3.00;;
15183;SDS011;7693;49.266;7.104;2023-04-15T20:15:30;4.43;;;3.47;;
15183;SDS011;7693;49.266;7.104;2023-04-15T20:17:56;3.43;;;3.23;;
15183;SDS011;7693;49.266;7.104;2023-04-15T20:20:22;3.37;;;3.07;;
15183;SDS011;7693;49.266;7.104;2023-04-15T20:22:47;3.23;;;3.10;;
15183;SDS011;7693;49.266;7.104;2023-04-15T20:25:13;3.00;;;2.90;;
15183;SDS011;7693;49.266;7.104;2023-04-15T20:27:39;3.20;;;3.00;;
15183;SDS011;7693;49.266;7.104;2023-04-15T20:30:04;3.20;;;3.10;;
15183;SDS011;7693;49.266;7.104;2023-04-15T20:32:31;3.20;;;3.03;;
15183;SDS011;7693;49.266;7.104;2023-04-15T20:34:59;4.30;;;3.90;;
15183;SDS011;7693;49.266;7.104;2023-04-15T20:37:25;4.03;;;3.50;;
15183;SDS011;7693;49.266;7.104;2023-04-15T20:39:51;3.47;;;3.27;;
15183;SDS011;7693;49.266;7.104;2023-04-15T20:42:17;3.40;;;3.30;;
15183;SDS011;7693;49.266;7.104;2023-04-15T20:44:43;3.60;;;3.40;;
15183;SDS011;7693;49.266;7.104;2023-04-15T20:47:09;3.80;;;3.60;;
15183;SDS011;7693;49.266;7.104;2023-04-15T20:49:35;3.60;;;3.30;;
15183;SDS011;7693;49.266;7.104;2023-04-15T20:52:02;3.50;;;3.30;;
15183;SDS011;7693;49.266;7.104;2023-04-15T20:54:28;3.70;;;3.40;;
15183;SDS011;7693;49.266;7.104;2023-04-15T20:56:54;3.67;;;3.57;;
15183;SDS011;7693;49.266;7.104;2023-04-15T20:59:21;3.97;;;3.77;;
15183;SDS011;7693;49.266;7.104;2023-04-15T21:01:46;3.53;;;3.23;;
15183;SDS011;7693;49.266;7.104;2023-04-15T21:04:12;3.63;;;3.33;;
15183;SDS011;7693;49.266;7.104;2023-04-15T21:06:37;4.10;;;3.80;;
15183;SDS011;7693;49.266;7.104;2023-04-15T21:09:03;3.80;;;3.60;;
15183;SDS011;7693;49.266;7.104;2023-04-15T21:11:28;3.40;;;3.20;;
15183;SDS011;7693;49.266;7.104;2023-04-15T21:13:55;3.73;;;3.53;;
15183;SDS011;7693;49.266;7.104;2023-04-15T21:16:21;4.13;;;3.63;;
15183;SDS011;7693;49.266;7.104;2023-04-15T21:18:47;3.47;;;3.27;;
15183;SDS011;7693;49.266;7.104;2023-04-15T21:21:12;4.23;;;3.90;;
15183;SDS011;7693;49.266;7.104;2023-04-15T21:23:38;3.53;;;3.33;;
15183;SDS011;7693;49.266;7.104;2023-04-15T21:26:04;5.40;;;4.60;;
15183;SDS011;7693;49.266;7.104;2023-04-15T21:28:30;4.03;;;3.93;;
15183;SDS011;7693;49.266;7.104;2023-04-15T21:30:56;4.50;;;4.10;;
15183;SDS011;7693;49.266;7.104;2023-04-15T21:33:21;4.53;;;4.23;;
15183;SDS011;7693;49.266;7.104;2023-04-15T21:35:47;4.17;;;3.93;;
15183;SDS011;7693;49.266;7.104;2023-04-15T21:38:13;5.73;;;4.07;;
15183;SDS011;7693;49.266;7.104;2023-04-15T21:40:38;3.90;;;3.70;;
15183;SDS011;7693;49.266;7.104;2023-04-15T21:43:04;4.47;;;4.27;;
